Time;durP1;ratioP1;P1;durP2;ratioP2;P2;SDS_P1;SDS_P2;PMS_P1;PMS_P2;Temp;Humidity;BMP_temperature;BMP_pressure;BME280_temperature;BME280_humidity;BME280_pressure;Samples;Min_cycle;Max_cycle;Signal;HPM_P1;HPM_P2
2023/11/21 00:00:22;;;;;;;5.65;1.52;;;;;;;;;;2090547;28;20033;-56
2023/11/21 00:01:23;;;;;;;12.40;2.15;;;;;;;;;;2091287;28;20037;-56
2023/11/21 00:02:24;;;;;;;9.82;1.88;;;;;;;;;;2090866;28;20040;-56
2023/11/21 00:03:25;;;;;;;6.25;1.60;;;;;;;;;;2091216;28;20469;-56
2023/11/21 00:04:28;;;;;;;6.32;1.77;;;;;;;;;;2091115;28;20116;-57
2023/11/21 00:05:29;;;;;;;10.27;1.63;;;;;;;;;;2090934;28;20029;-56
2023/11/21 00:06:30;;;;;;;5.55;1.60;;;;;;;;;;2090325;28;20458;-57
2023/11/21 00:07:30;;;;;;;5.65;1.25;;;;;;;;;;2090760;28;20033;-57
2023/11/21 00:08:31;;;;;;;8.65;1.45;;;;;;;;;;2090726;28;20051;-58
2023/11/21 00:09:32;;;;;;;5.35;1.25;;;;;;;;;;2091142;28;20033;-58
2023/11/21 00:10:33;;;;;;;7.82;1.77;;;;;;;;;;2090755;28;20041;-58
2023/11/21 00:11:34;;;;;;;8.23;2.05;;;;;;;;;;2091300;28;20067;-58
2023/11/21 00:12:35;;;;;;;8.02;1.30;;;;;;;;;;2090773;28;20044;-57
2023/11/21 00:13:35;;;;;;;9.60;1.70;;;;;;;;;;2090470;28;20068;-57
2023/11/21 00:14:38;;;;;;;7.93;1.75;;;;;;;;;;2090166;28;20052;-57
2023/11/21 00:15:38;;;;;;;8.80;1.98;;;;;;;;;;2090924;28;20041;-57
2023/11/21 00:16:39;;;;;;;6.40;1.27;;;;;;;;;;2090919;28;20048;-58
2023/11/21 00:17:40;;;;;;;6.43;1.77;;;;;;;;;;2091066;28;20036;-57
2023/11/21 00:18:41;;;;;;;7.43;1.42;;;;;;;;;;2090931;28;20044;-57
2023/11/21 00:19:42;;;;;;;10.02;1.60;;;;;;;;;;2090744;28;20048;-57
2023/11/21 00:20:43;;;;;;;7.60;1.40;;;;;;;;;;2090661;28;20041;-58
2023/11/21 00:21:44;;;;;;;10.00;1.58;;;;;;;;;;2091003;28;20040;-57
2023/11/21 00:22:46;;;;;;;7.28;1.30;;;;;;;;;;2090634;28;20040;-58
2023/11/21 00:23:47;;;;;;;8.88;1.70;;;;;;;;;;2090649;28;20044;-57
2023/11/21 00:24:48;;;;;;;9.82;1.40;;;;;;;;;;2091032;28;20045;-57
2023/11/21 00:25:48;;;;;;;4.78;1.20;;;;;;;;;;2090940;28;20043;-57
2023/11/21 00:26:49;;;;;;;5.80;1.67;;;;;;;;;;2090598;28;20041;-58
2023/11/21 00:27:50;;;;;;;4.38;1.42;;;;;;;;;;2090697;28;20052;-57
2023/11/21 00:28:51;;;;;;;1.67;0.52;;;;;;;;;;2090696;28;20067;-58
2023/11/21 00:29:51;;;;;;;5.80;1.60;;;;;;;;;;2090751;28;20416;-58
2023/11/21 00:30:52;;;;;;;4.70;1.27;;;;;;;;;;2090260;28;20535;-59
2023/11/21 00:31:54;;;;;;;4.10;0.90;;;;;;;;;;2090346;28;20035;-59
2023/11/21 00:32:55;;;;;;;5.03;1.30;;;;;;;;;;2089953;28;20033;-59
2023/11/21 00:33:55;;;;;;;10.93;1.88;;;;;;;;;;2090141;28;20025;-58
2023/11/21 00:34:56;;;;;;;10.65;1.45;;;;;;;;;;2090765;28;20056;-59
2023/11/21 00:35:57;;;;;;;7.15;1.42;;;;;;;;;;2090285;28;20386;-59
2023/11/21 00:36:58;;;;;;;7.30;1.40;;;;;;;;;;2090581;28;20500;-58
2023/11/21 00:37:59;;;;;;;4.10;0.95;;;;;;;;;;2090125;28;20033;-58
2023/11/21 00:39:00;;;;;;;5.50;1.20;;;;;;;;;;2081104;28;20037;-58
2023/11/21 00:40:05;;;;;;;5.65;1.23;;;;;;;;;;2089954;28;20052;-59
2023/11/21 00:41:06;;;;;;;10.30;1.23;;;;;;;;;;2089862;28;20037;-59
2023/11/21 00:42:08;;;;;;;8.18;1.60;;;;;;;;;;2089420;28;20388;-59
2023/11/21 00:43:09;;;;;;;8.57;1.30;;;;;;;;;;2090458;28;20048;-59
2023/11/21 00:44:10;;;;;;;7.07;1.25;;;;;;;;;;2089858;28;20040;-58
2023/11/21 00:45:11;;;;;;;6.63;1.40;;;;;;;;;;2090108;28;20029;-59
2023/11/21 00:46:11;;;;;;;10.20;1.38;;;;;;;;;;2090787;28;20025;-59
2023/11/21 00:47:12;;;;;;;4.85;1.20;;;;;;;;;;2090509;28;20033;-59
2023/11/21 00:48:14;;;;;;;10.13;1.23;;;;;;;;;;2090137;28;20029;-59
2023/11/21 00:49:15;;;;;;;7.97;1.65;;;;;;;;;;2089617;28;20554;-59
2023/11/21 00:50:17;;;;;;;8.18;1.15;;;;;;;;;;2089851;28;20044;-59
2023/11/21 00:51:17;;;;;;;3.35;0.82;;;;;;;;;;2090159;28;20499;-59
2023/11/21 00:52:18;;;;;;;4.88;1.23;;;;;;;;;;2090389;28;20036;-59
2023/11/21 00:53:19;;;;;;;5.18;0.98;;;;;;;;;;2089791;28;20029;-59
2023/11/21 00:54:19;;;;;;;7.40;1.60;;;;;;;;;;2090500;28;20369;-59
2023/11/21 00:55:20;;;;;;;12.63;1.80;;;;;;;;;;2090391;28;20041;-58
2023/11/21 00:56:21;;;;;;;5.07;1.02;;;;;;;;;;2090442;28;20044;-59
2023/11/21 00:57:22;;;;;;;3.65;1.10;;;;;;;;;;2090751;28;20393;-59
2023/11/21 00:58:25;;;;;;;6.20;1.40;;;;;;;;;;2090506;28;20055;-58
2023/11/21 00:59:26;;;;;;;6.65;1.33;;;;;;;;;;2090106;28;20049;-59
2023/11/21 01:00:27;;;;;;;3.13;0.70;;;;;;;;;;2090095;28;20060;-59
2023/11/21 01:01:28;;;;;;;6.13;1.30;;;;;;;;;;2090569;28;20563;-59
2023/11/21 01:02:28;;;;;;;1.85;0.75;;;;;;;;;;2090398;28;20025;-59
2023/11/21 01:03:29;;;;;;;4.82;1.10;;;;;;;;;;2090115;28;20037;-59
2023/11/21 01:04:31;;;;;;;5.78;1.17;;;;;;;;;;2090097;28;20083;-59
2023/11/21 01:05:32;;;;;;;2.58;0.88;;;;;;;;;;2090001;28;20036;-59
2023/11/21 01:06:33;;;;;;;13.77;3.30;;;;;;;;;;2090048;28;20029;-59
2023/11/21 01:07:33;;;;;;;7.13;1.20;;;;;;;;;;2089431;28;20041;-59
2023/11/21 01:08:34;;;;;;;7.80;1.83;;;;;;;;;;2089826;28;20417;-59
2023/11/21 01:09:35;;;;;;;3.00;0.90;;;;;;;;;;2090297;28;20048;-60
2023/11/21 01:10:36;;;;;;;3.50;1.27;;;;;;;;;;2090329;28;20125;-59
2023/11/21 01:11:37;;;;;;;7.30;1.25;;;;;;;;;;2090397;28;20036;-59
2023/11/21 01:12:38;;;;;;;7.40;1.63;;;;;;;;;;2089703;28;20033;-59
2023/11/21 01:13:39;;;;;;;4.40;1.52;;;;;;;;;;2089925;28;20473;-59
2023/11/21 01:14:40;;;;;;;7.05;1.88;;;;;;;;;;2089379;28;20065;-59
2023/11/21 01:15:41;;;;;;;4.10;0.93;;;;;;;;;;2090463;28;20036;-59
2023/11/21 01:16:42;;;;;;;5.50;0.80;;;;;;;;;;2090547;28;20043;-59
2023/11/21 01:17:42;;;;;;;3.65;0.88;;;;;;;;;;2088623;28;20420;-59
2023/11/21 01:18:43;;;;;;;2.72;0.80;;;;;;;;;;2081205;28;20041;-59
2023/11/21 01:19:44;;;;;;;2.95;1.10;;;;;;;;;;2089642;28;20021;-59
2023/11/21 01:20:46;;;;;;;7.18;1.45;;;;;;;;;;2090872;28;20056;-59
2023/11/21 01:21:47;;;;;;;9.75;1.63;;;;;;;;;;2090320;28;20048;-59
2023/11/21 01:22:49;;;;;;;1.90;0.90;;;;;;;;;;2090242;28;20028;-60
2023/11/21 01:23:49;;;;;;;5.55;1.20;;;;;;;;;;2089240;28;20040;-59
2023/11/21 01:24:50;;;;;;;0.75;0.55;;;;;;;;;;2089932;28;20051;-60
2023/11/21 01:25:51;;;;;;;11.80;1.58;;;;;;;;;;2090396;28;20457;-59
2023/11/21 01:26:52;;;;;;;4.30;1.45;;;;;;;;;;2090282;28;20063;-60
2023/11/21 01:27:53;;;;;;;1.95;0.68;;;;;;;;;;2090267;28;20044;-60
2023/11/21 01:28:54;;;;;;;7.63;1.60;;;;;;;;;;2090443;28;20123;-60
2023/11/21 01:29:55;;;;;;;3.08;1.20;;;;;;;;;;2089530;28;20045;-60
2023/11/21 01:30:56;;;;;;;3.50;1.00;;;;;;;;;;2081484;28;20424;-60
2023/11/21 01:31:57;;;;;;;4.85;1.20;;;;;;;;;;2089390;28;20044;-60
2023/11/21 01:32:58;;;;;;;4.70;0.98;;;;;;;;;;2088976;28;20404;-60
2023/11/21 01:33:59;;;;;;;5.03;0.88;;;;;;;;;;2081443;28;20048;-60
2023/11/21 01:35:00;;;;;;;5.07;1.45;;;;;;;;;;2089592;28;20024;-60
2023/11/21 01:36:00;;;;;;;4.25;1.23;;;;;;;;;;2089571;28;20041;-60
2023/11/21 01:37:04;;;;;;;2.42;0.88;;;;;;;;;;2089324;28;20056;-59
2023/11/21 01:38:08;;;;;;;5.18;1.10;;;;;;;;;;2089822;28;20036;-59
2023/11/21 01:39:11;;;;;;;3.72;1.20;;;;;;;;;;2089239;28;20056;-59
2023/11/21 01:40:13;;;;;;;6.30;1.15;;;;;;;;;;2090148;28;20045;-59
2023/11/21 01:41:14;;;;;;;8.23;1.70;;;;;;;;;;2089556;28;20052;-59
2023/11/21 01:42:15;;;;;;;5.00;1.13;;;;;;;;;;2089562;28;20028;-59
2023/11/21 01:43:16;;;;;;;4.55;1.08;;;;;;;;;;2089547;28;20018;-60
2023/11/21 01:44:19;;;;;;;4.57;1.60;;;;;;;;;;2089768;28;20037;-60
2023/11/21 01:45:19;;;;;;;3.72;0.88;;;;;;;;;;2089592;28;20048;-59
2023/11/21 01:46:20;;;;;;;5.78;1.63;;;;;;;;;;2090164;28;20090;-59
2023/11/21 01:47:21;;;;;;;7.50;2.10;;;;;;;;;;2089545;28;20052;-59
2023/11/21 01:48:22;;;;;;;3.47;0.98;;;;;;;;;;2089567;28;20431;-59
2023/11/21 01:49:23;;;;;;;4.15;1.20;;;;;;;;;;2081311;28;20038;-59
2023/11/21 01:50:24;;;;;;;6.07;1.38;;;;;;;;;;2081508;28;20034;-59
2023/11/21 01:51:26;;;;;;;7.28;1.58;;;;;;;;;;2073323;28;20042;-59
2023/11/21 01:52:27;;;;;;;6.57;1.50;;;;;;;;;;2081806;28;20359;-59
2023/11/21 01:53:30;;;;;;;7.25;1.27;;;;;;;;;;2089498;28;20499;-59
2023/11/21 01:54:33;;;;;;;5.95;1.40;;;;;;;;;;2089530;28;20028;-59
2023/11/21 01:55:34;;;;;;;7.85;1.60;;;;;;;;;;2090378;28;20040;-59
2023/11/21 01:56:35;;;;;;;5.63;1.52;;;;;;;;;;2073071;28;20053;-59
2023/11/21 01:57:37;;;;;;;6.22;1.30;;;;;;;;;;2073154;28;20046;-59
2023/11/21 01:58:38;;;;;;;8.18;1.30;;;;;;;;;;2089404;28;20045;-59
2023/11/21 01:59:39;;;;;;;7.95;1.50;;;;;;;;;;2089554;28;20113;-59
2023/11/21 02:00:39;;;;;;;6.40;1.17;;;;;;;;;;2089258;28;20064;-58
2023/11/21 02:01:41;;;;;;;6.03;1.60;;;;;;;;;;2088940;28;20128;-58
2023/11/21 02:02:42;;;;;;;5.95;1.13;;;;;;;;;;2090237;28;20040;-58
2023/11/21 02:03:43;;;;;;;6.32;1.02;;;;;;;;;;2089777;28;20048;-59
2023/11/21 02:04:43;;;;;;;5.60;1.10;;;;;;;;;;2081443;28;20033;-60
2023/11/21 02:05:44;;;;;;;9.80;1.50;;;;;;;;;;2081260;28;20397;-60
2023/11/21 02:06:45;;;;;;;9.65;1.30;;;;;;;;;;2097997;28;20032;-58
2023/11/21 02:07:48;;;;;;;5.45;1.10;;;;;;;;;;2106366;28;20040;-57
2023/11/21 02:08:50;;;;;;;8.35;1.50;;;;;;;;;;2089442;28;20044;-58
2023/11/21 02:09:51;;;;;;;5.63;1.13;;;;;;;;;;2090065;28;20037;-58
2023/11/21 02:10:52;;;;;;;10.02;1.45;;;;;;;;;;2089925;28;20033;-57
2023/11/21 02:11:53;;;;;;;9.80;1.73;;;;;;;;;;2089069;28;20392;-57
2023/11/21 02:12:56;;;;;;;10.48;1.63;;;;;;;;;;2089412;28;20024;-58
2023/11/21 02:13:58;;;;;;;6.93;1.60;;;;;;;;;;2089645;28;20448;-58
2023/11/21 02:15:00;;;;;;;6.53;1.50;;;;;;;;;;2089559;28;20041;-57
2023/11/21 02:16:01;;;;;;;6.85;1.77;;;;;;;;;;2089379;28;20056;-58
2023/11/21 02:17:03;;;;;;;9.65;1.83;;;;;;;;;;2073055;28;20033;-58
2023/11/21 02:18:06;;;;;;;3.92;1.10;;;;;;;;;;2081639;28;20029;-58
2023/11/21 02:19:09;;;;;;;6.18;1.30;;;;;;;;;;2088718;28;20041;-59
2023/11/21 02:20:16;;;;;;;5.43;1.20;;;;;;;;;;2081765;28;20473;-58
2023/11/21 02:21:19;;;;;;;5.25;1.73;;;;;;;;;;2082140;28;20426;-57
2023/11/21 02:22:19;;;;;;;8.63;1.75;;;;;;;;;;2089558;28;20075;-59
2023/11/21 02:23:20;;;;;;;7.90;1.90;;;;;;;;;;2081452;28;20064;-58
2023/11/21 02:24:21;;;;;;;11.13;1.95;;;;;;;;;;2089743;28;20041;-58
2023/11/21 02:25:22;;;;;;;6.32;1.70;;;;;;;;;;2089334;28;20036;-59
2023/11/21 02:26:24;;;;;;;7.25;1.42;;;;;;;;;;2089376;28;20068;-59
2023/11/21 02:27:27;;;;;;;5.80;1.40;;;;;;;;;;2090000;28;20029;-59
2023/11/21 02:28:28;;;;;;;4.38;1.38;;;;;;;;;;2089957;28;20029;-58
2023/11/21 02:29:29;;;;;;;6.00;1.48;;;;;;;;;;2091037;28;20123;-59
2023/11/21 02:30:33;;;;;;;9.93;1.75;;;;;;;;;;2091552;28;20139;-59
2023/11/21 02:31:33;;;;;;;8.90;1.60;;;;;;;;;;2091724;28;20037;-58
2023/11/21 02:32:35;;;;;;;6.43;1.70;;;;;;;;;;2090709;28;20049;-59
2023/11/21 02:33:36;;;;;;;5.55;1.40;;;;;;;;;;2082448;28;20047;-58
2023/11/21 02:34:37;;;;;;;4.07;1.48;;;;;;;;;;2091103;28;20089;-58
2023/11/21 02:35:38;;;;;;;9.88;1.92;;;;;;;;;;2091545;28;20049;-58
2023/11/21 02:36:39;;;;;;;10.90;1.80;;;;;;;;;;2091517;28;20049;-59
2023/11/21 02:37:40;;;;;;;7.95;1.63;;;;;;;;;;2091580;28;20044;-58
2023/11/21 02:38:41;;;;;;;7.47;1.67;;;;;;;;;;2091673;28;20373;-59
2023/11/21 02:39:42;;;;;;;7.95;1.80;;;;;;;;;;2091607;28;20068;-59
2023/11/21 02:40:42;;;;;;;6.78;1.42;;;;;;;;;;2082642;28;20033;-59
2023/11/21 02:41:43;;;;;;;6.70;1.83;;;;;;;;;;2082591;28;20041;-58
2023/11/21 02:42:44;;;;;;;5.32;1.48;;;;;;;;;;2091757;28;20075;-59
2023/11/21 02:43:45;;;;;;;4.90;1.30;;;;;;;;;;2090849;28;20036;-59
2023/11/21 02:44:46;;;;;;;8.23;1.30;;;;;;;;;;2090895;28;20071;-59
2023/11/21 02:45:46;;;;;;;7.75;1.40;;;;;;;;;;2090677;28;20090;-59
2023/11/21 02:46:47;;;;;;;5.55;1.55;;;;;;;;;;2091047;28;20033;-59
2023/11/21 02:47:49;;;;;;;6.88;1.42;;;;;;;;;;2091435;28;20068;-59
2023/11/21 02:48:51;;;;;;;7.32;1.90;;;;;;;;;;2090778;28;20033;-59
2023/11/21 02:49:52;;;;;;;4.65;1.88;;;;;;;;;;2082530;28;20033;-59
2023/11/21 02:50:53;;;;;;;8.20;1.45;;;;;;;;;;2082915;28;20457;-58
2023/11/21 02:51:54;;;;;;;2.83;1.02;;;;;;;;;;2090532;28;20037;-58
2023/11/21 02:52:57;;;;;;;8.18;1.70;;;;;;;;;;2090749;28;20504;-59
2023/11/21 02:53:59;;;;;;;6.60;1.60;;;;;;;;;;2091580;28;20033;-59
2023/11/21 02:54:59;;;;;;;6.78;1.38;;;;;;;;;;2090722;28;20033;-59
2023/11/21 02:56:00;;;;;;;5.82;1.50;;;;;;;;;;2090475;28;20041;-58
2023/11/21 02:57:01;;;;;;;8.90;2.20;;;;;;;;;;2091288;28;20052;-57
2023/11/21 02:58:02;;;;;;;7.78;1.58;;;;;;;;;;2091302;28;20381;-58
2023/11/21 02:59:03;;;;;;;5.28;1.77;;;;;;;;;;2091555;28;20354;-58
2023/11/21 03:00:07;;;;;;;8.00;1.60;;;;;;;;;;2091238;28;20041;-58
2023/11/21 03:01:08;;;;;;;4.95;1.30;;;;;;;;;;2082445;28;20057;-58
2023/11/21 03:02:09;;;;;;;8.52;1.63;;;;;;;;;;2083466;28;20061;-58
2023/11/21 03:03:10;;;;;;;9.93;2.20;;;;;;;;;;2083344;28;20385;-58
2023/11/21 03:04:10;;;;;;;5.88;1.50;;;;;;;;;;2082845;28;20041;-58
2023/11/21 03:05:11;;;;;;;5.78;1.50;;;;;;;;;;2083137;28;20029;-58
2023/11/21 03:06:12;;;;;;;5.72;1.30;;;;;;;;;;2082976;28;20040;-58
2023/11/21 03:07:12;;;;;;;12.18;1.92;;;;;;;;;;2082116;28;20037;-58
2023/11/21 03:08:13;;;;;;;9.55;1.55;;;;;;;;;;2082691;28;20489;-59
2023/11/21 03:09:14;;;;;;;7.65;1.15;;;;;;;;;;2083008;28;20040;-58
2023/11/21 03:10:15;;;;;;;9.95;1.83;;;;;;;;;;2082737;28;20044;-58
2023/11/21 03:11:15;;;;;;;7.68;1.38;;;;;;;;;;2082001;28;20037;-58
2023/11/21 03:12:16;;;;;;;7.15;1.50;;;;;;;;;;2083300;28;20037;-58
2023/11/21 03:13:17;;;;;;;7.22;1.33;;;;;;;;;;2083047;28;20484;-58
2023/11/21 03:14:17;;;;;;;6.18;1.48;;;;;;;;;;2083003;28;20045;-58
2023/11/21 03:15:18;;;;;;;6.10;2.08;;;;;;;;;;2081960;28;20053;-58
2023/11/21 03:16:19;;;;;;;8.93;1.50;;;;;;;;;;2082943;28;20036;-58
2023/11/21 03:17:20;;;;;;;10.57;1.67;;;;;;;;;;2083268;28;20057;-58
2023/11/21 03:18:24;;;;;;;6.28;1.63;;;;;;;;;;2082814;28;20037;-57
2023/11/21 03:19:25;;;;;;;10.88;2.33;;;;;;;;;;2082981;28;20049;-57
2023/11/21 03:20:26;;;;;;;7.75;1.85;;;;;;;;;;2082949;28;20041;-57
2023/11/21 03:21:27;;;;;;;7.75;1.42;;;;;;;;;;2082973;28;20508;-58
2023/11/21 03:22:27;;;;;;;6.50;1.10;;;;;;;;;;2082958;28;20049;-58
2023/11/21 03:23:28;;;;;;;11.65;2.22;;;;;;;;;;2082248;28;20041;-58
2023/11/21 03:24:29;;;;;;;5.57;1.40;;;;;;;;;;2082584;28;20041;-58
2023/11/21 03:25:30;;;;;;;7.55;1.90;;;;;;;;;;2081948;28;20041;-58
2023/11/21 03:26:31;;;;;;;5.97;1.38;;;;;;;;;;2082607;28;20041;-58
2023/11/21 03:27:32;;;;;;;4.88;1.45;;;;;;;;;;2082883;28;20059;-57
2023/11/21 03:28:33;;;;;;;7.55;1.80;;;;;;;;;;2082899;28;20054;-58
2023/11/21 03:29:34;;;;;;;7.55;1.70;;;;;;;;;;2082291;28;20060;-57
2023/11/21 03:30:35;;;;;;;8.63;1.60;;;;;;;;;;2082394;28;20041;-56
2023/11/21 03:31:36;;;;;;;4.85;1.48;;;;;;;;;;2082253;28;20049;-57
2023/11/21 03:32:36;;;;;;;7.13;1.45;;;;;;;;;;2081916;28;20046;-57
2023/11/21 03:33:37;;;;;;;6.28;1.40;;;;;;;;;;2082301;28;20095;-57
2023/11/21 03:34:52;;;;;;;7.32;1.55;;;;;;;;;;2082182;28;20513;-56
2023/11/21 03:35:53;;;;;;;6.82;1.05;;;;;;;;;;2082633;28;20046;-56
2023/11/21 03:36:53;;;;;;;7.72;1.58;;;;;;;;;;2082230;28;20430;-56
2023/11/21 03:37:54;;;;;;;7.68;1.70;;;;;;;;;;2081921;28;20485;-55
2023/11/21 03:38:55;;;;;;;6.95;2.10;;;;;;;;;;2081889;28;20037;-56
2023/11/21 03:39:56;;;;;;;10.63;2.08;;;;;;;;;;2081808;28;20038;-56
2023/11/21 03:40:57;;;;;;;4.15;1.75;;;;;;;;;;2073071;28;20462;-56
2023/11/21 03:41:58;;;;;;;5.80;1.23;;;;;;;;;;2082278;28;20037;-56
2023/11/21 03:42:59;;;;;;;5.95;1.23;;;;;;;;;;2082373;28;20041;-55
2023/11/21 03:44:00;;;;;;;4.63;1.48;;;;;;;;;;2082695;28;20048;-55
2023/11/21 03:45:00;;;;;;;4.82;1.15;;;;;;;;;;2082811;28;20033;-56
2023/11/21 03:46:01;;;;;;;5.47;1.02;;;;;;;;;;2083209;28;20374;-56
2023/11/21 03:47:02;;;;;;;11.30;1.52;;;;;;;;;;2082771;28;20068;-56
2023/11/21 03:48:03;;;;;;;3.05;0.90;;;;;;;;;;2081937;28;20029;-55
2023/11/21 03:49:03;;;;;;;8.52;1.23;;;;;;;;;;2082494;28;20502;-55
2023/11/21 03:50:05;;;;;;;5.20;1.08;;;;;;;;;;2083502;28;20045;-55
2023/11/21 03:51:05;;;;;;;4.18;1.10;;;;;;;;;;2082704;28;20040;-56
2023/11/21 03:52:09;;;;;;;5.78;1.10;;;;;;;;;;2082659;28;20048;-57
2023/11/21 03:53:09;;;;;;;8.20;0.90;;;;;;;;;;2082066;28;20045;-56
2023/11/21 03:54:10;;;;;;;8.10;1.30;;;;;;;;;;2082071;28;20045;-56
2023/11/21 03:55:14;;;;;;;7.85;1.65;;;;;;;;;;2081770;28;20033;-55
2023/11/21 03:56:17;;;;;;;4.93;1.00;;;;;;;;;;2082281;28;20397;-56
2023/11/21 03:57:18;;;;;;;1.90;0.63;;;;;;;;;;2081861;28;20037;-56
2023/11/21 03:58:18;;;;;;;4.70;0.95;;;;;;;;;;2082033;28;20052;-55
2023/11/21 03:59:20;;;;;;;1.80;0.75;;;;;;;;;;2082208;28;20041;-56
2023/11/21 04:00:20;;;;;;;2.30;0.80;;;;;;;;;;2084191;28;20030;-56
2023/11/21 04:01:22;;;;;;;4.03;1.17;;;;;;;;;;2090856;28;20068;-55
2023/11/21 04:02:22;;;;;;;5.93;1.63;;;;;;;;;;2090850;28;20033;-57
2023/11/21 04:03:23;;;;;;;3.58;1.10;;;;;;;;;;2090836;28;20037;-58
2023/11/21 04:04:24;;;;;;;7.40;0.75;;;;;;;;;;2091503;28;20500;-55
2023/11/21 04:05:24;;;;;;;6.15;1.65;;;;;;;;;;2090663;28;20040;-57
2023/11/21 04:06:25;;;;;;;5.88;1.10;;;;;;;;;;2091000;28;20037;-56
2023/11/21 04:07:26;;;;;;;6.10;1.05;;;;;;;;;;2090810;28;20056;-56
2023/11/21 04:08:27;;;;;;;4.75;2.03;;;;;;;;;;2090811;28;20053;-57
2023/11/21 04:09:28;;;;;;;4.38;0.90;;;;;;;;;;2090860;28;20032;-57
2023/11/21 04:10:28;;;;;;;1.90;0.50;;;;;;;;;;2090795;28;20068;-55
2023/11/21 04:11:29;;;;;;;4.35;1.05;;;;;;;;;;2091168;28;20484;-55
2023/11/21 04:12:30;;;;;;;2.85;0.85;;;;;;;;;;2090757;28;20037;-55
2023/11/21 04:13:31;;;;;;;6.32;1.17;;;;;;;;;;2090770;28;20048;-57
2023/11/21 04:14:31;;;;;;;3.90;1.15;;;;;;;;;;2090741;28;20393;-55
2023/11/21 04:15:32;;;;;;;4.05;0.57;;;;;;;;;;2089421;28;20041;-56
2023/11/21 04:16:33;;;;;;;3.42;0.90;;;;;;;;;;2091424;28;20048;-55
2023/11/21 04:17:34;;;;;;;6.25;1.23;;;;;;;;;;2090683;28;20078;-56
2023/11/21 04:18:35;;;;;;;3.35;1.08;;;;;;;;;;2090698;28;20048;-55
2023/11/21 04:19:36;;;;;;;4.45;1.08;;;;;;;;;;2090612;28;20036;-55
2023/11/21 04:20:37;;;;;;;7.75;1.38;;;;;;;;;;2090935;28;20037;-55
2023/11/21 04:21:38;;;;;;;4.13;1.38;;;;;;;;;;2090411;28;20378;-55
2023/11/21 04:22:40;;;;;;;5.13;0.75;;;;;;;;;;2090686;28;20060;-56
2023/11/21 04:23:41;;;;;;;8.05;1.30;;;;;;;;;;2091247;28;20381;-56
2023/11/21 04:24:42;;;;;;;3.35;0.60;;;;;;;;;;2090327;28;20041;-56
2023/11/21 04:25:42;;;;;;;4.05;0.80;;;;;;;;;;2090198;28;20048;-55
2023/11/21 04:26:43;;;;;;;3.65;0.80;;;;;;;;;;2090703;28;20035;-56
2023/11/21 04:27:44;;;;;;;4.07;0.73;;;;;;;;;;2090651;28;20048;-56
2023/11/21 04:28:45;;;;;;;6.03;1.27;;;;;;;;;;2090841;28;20052;-56
2023/11/21 04:29:46;;;;;;;5.85;1.17;;;;;;;;;;2090854;28;20052;-56
2023/11/21 04:30:46;;;;;;;2.42;0.52;;;;;;;;;;2090817;28;20033;-56
2023/11/21 04:31:49;;;;;;;5.90;0.90;;;;;;;;;;2090598;28;20041;-56
2023/11/21 04:32:50;;;;;;;4.57;1.10;;;;;;;;;;2090492;28;20041;-56
2023/11/21 04:33:51;;;;;;;3.83;0.88;;;;;;;;;;2090805;28;20029;-56
2023/11/21 04:34:52;;;;;;;1.70;0.80;;;;;;;;;;2090999;28;20021;-56
2023/11/21 04:35:52;;;;;;;4.68;0.98;;;;;;;;;;2090608;28;20064;-56
2023/11/21 04:36:53;;;;;;;3.55;1.08;;;;;;;;;;2090995;28;20405;-56
2023/11/21 04:37:54;;;;;;;2.08;1.00;;;;;;;;;;2090316;28;20033;-56
2023/11/21 04:38:55;;;;;;;5.43;0.77;;;;;;;;;;2090547;28;20186;-56
2023/11/21 04:39:55;;;;;;;4.35;1.02;;;;;;;;;;2090821;28;20029;-56
2023/11/21 04:40:56;;;;;;;4.35;1.30;;;;;;;;;;2090519;28;20028;-55
2023/11/21 04:41:57;;;;;;;5.22;1.38;;;;;;;;;;2090530;28;20181;-56
2023/11/21 04:42:58;;;;;;;4.15;1.00;;;;;;;;;;2090808;28;20024;-56
2023/11/21 04:44:00;;;;;;;3.70;1.42;;;;;;;;;;2090500;28;20404;-56
2023/11/21 04:45:01;;;;;;;5.00;1.05;;;;;;;;;;2090823;28;20381;-56
2023/11/21 04:46:02;;;;;;;2.60;1.20;;;;;;;;;;2090493;28;20082;-55
2023/11/21 04:47:04;;;;;;;3.13;0.80;;;;;;;;;;2090472;28;20496;-56
2023/11/21 04:48:06;;;;;;;7.57;1.08;;;;;;;;;;2090546;28;20037;-56
2023/11/21 04:49:07;;;;;;;3.67;0.90;;;;;;;;;;2090640;28;20032;-57
2023/11/21 04:50:08;;;;;;;3.15;0.80;;;;;;;;;;2090467;28;20469;-56
2023/11/21 04:51:09;;;;;;;7.60;1.20;;;;;;;;;;2090768;28;20094;-56
2023/11/21 04:52:09;;;;;;;2.90;0.93;;;;;;;;;;2090816;28;20045;-56
2023/11/21 04:53:13;;;;;;;6.95;1.20;;;;;;;;;;2090571;28;20036;-56
2023/11/21 04:54:13;;;;;;;3.80;1.30;;;;;;;;;;2090427;28;20044;-56
2023/11/21 04:55:15;;;;;;;7.35;1.20;;;;;;;;;;2090827;28;20040;-56
2023/11/21 04:56:16;;;;;;;6.65;1.30;;;;;;;;;;2090614;28;20041;-55
2023/11/21 04:57:18;;;;;;;2.55;0.98;;;;;;;;;;2090724;28;20037;-56
2023/11/21 04:58:20;;;;;;;5.90;1.42;;;;;;;;;;2090731;28;20517;-56
2023/11/21 04:59:24;;;;;;;4.82;0.95;;;;;;;;;;2090443;28;20083;-56
2023/11/21 05:00:25;;;;;;;7.65;1.52;;;;;;;;;;2090630;28;20400;-56
2023/11/21 05:01:26;;;;;;;4.43;0.90;;;;;;;;;;2090650;28;20044;-56
2023/11/21 05:02:26;;;;;;;3.78;1.02;;;;;;;;;;2090726;28;20033;-56
2023/11/21 05:03:29;;;;;;;3.65;0.80;;;;;;;;;;2090391;28;20063;-56
2023/11/21 05:04:30;;;;;;;4.50;0.93;;;;;;;;;;2090658;28;20037;-56
2023/11/21 05:05:31;;;;;;;4.25;1.05;;;;;;;;;;2090619;28;20041;-55
2023/11/21 05:06:32;;;;;;;1.63;0.65;;;;;;;;;;2090244;28;20040;-55
2023/11/21 05:07:35;;;;;;;2.08;0.85;;;;;;;;;;2090158;28;20041;-54
2023/11/21 05:08:37;;;;;;;4.28;1.27;;;;;;;;;;2090250;28;20041;-55
2023/11/21 05:09:40;;;;;;;2.88;0.80;;;;;;;;;;2090704;28;20048;-54
2023/11/21 05:10:41;;;;;;;3.75;0.90;;;;;;;;;;2090229;28;20048;-55
2023/11/21 05:11:42;;;;;;;5.63;2.03;;;;;;;;;;2091051;28;20056;-54
2023/11/21 05:12:43;;;;;;;6.10;1.10;;;;;;;;;;2090296;28;20397;-56
2023/11/21 05:13:43;;;;;;;3.75;1.05;;;;;;;;;;2090321;28;20485;-56
2023/11/21 05:14:44;;;;;;;4.15;1.00;;;;;;;;;;2090726;28;20052;-56
2023/11/21 05:15:45;;;;;;;5.10;1.50;;;;;;;;;;2089290;28;20424;-55
2023/11/21 05:16:46;;;;;;;3.13;1.20;;;;;;;;;;2090346;28;20049;-56
2023/11/21 05:17:49;;;;;;;3.72;1.05;;;;;;;;;;2090338;28;20052;-56
2023/11/21 05:18:50;;;;;;;3.60;1.02;;;;;;;;;;2090268;28;20049;-56
2023/11/21 05:19:51;;;;;;;2.70;0.93;;;;;;;;;;2090326;28;20064;-56
2023/11/21 05:20:52;;;;;;;4.13;1.23;;;;;;;;;;2090567;28;20053;-56
2023/11/21 05:21:52;;;;;;;3.05;1.00;;;;;;;;;;2090324;28;20041;-55
2023/11/21 05:22:53;;;;;;;3.50;1.20;;;;;;;;;;2090413;28;20420;-56
2023/11/21 05:23:54;;;;;;;5.10;1.35;;;;;;;;;;2090292;28;20037;-56
2023/11/21 05:24:54;;;;;;;3.10;1.13;;;;;;;;;;2090230;28;20029;-56
2023/11/21 05:25:56;;;;;;;4.03;1.30;;;;;;;;;;2090446;28;20032;-56
2023/11/21 05:26:57;;;;;;;4.78;0.80;;;;;;;;;;2090532;28;20391;-57
2023/11/21 05:28:01;;;;;;;4.55;1.30;;;;;;;;;;2090285;28;20037;-55
2023/11/21 05:29:01;;;;;;;4.80;0.98;;;;;;;;;;2090210;28;20033;-56
2023/11/21 05:30:05;;;;;;;5.00;1.00;;;;;;;;;;2090264;28;20025;-56
2023/11/21 05:31:05;;;;;;;3.55;1.00;;;;;;;;;;2090576;28;20052;-56
2023/11/21 05:32:06;;;;;;;2.47;1.00;;;;;;;;;;2090257;28;20052;-56
2023/11/21 05:33:07;;;;;;;4.53;1.17;;;;;;;;;;2089958;28;20041;-56
2023/11/21 05:34:07;;;;;;;3.72;1.15;;;;;;;;;;2090213;28;20044;-56
2023/11/21 05:35:15;;;;;;;4.57;0.77;;;;;;;;;;2090921;28;20393;-57
2023/11/21 05:36:16;;;;;;;2.70;0.80;;;;;;;;;;2090432;28;20033;-55
2023/11/21 05:37:17;;;;;;;4.90;1.15;;;;;;;;;;2090174;28;20385;-55
2023/11/21 05:38:18;;;;;;;3.78;1.10;;;;;;;;;;2090203;28;20036;-55
2023/11/21 05:39:19;;;;;;;3.47;0.90;;;;;;;;;;2090174;28;20485;-55
2023/11/21 05:40:21;;;;;;;4.75;1.08;;;;;;;;;;2090073;28;20036;-55
2023/11/21 05:41:23;;;;;;;3.80;1.23;;;;;;;;;;2090140;28;20052;-55
2023/11/21 05:42:24;;;;;;;5.18;0.90;;;;;;;;;;2090101;28;20045;-56
2023/11/21 05:43:24;;;;;;;3.75;0.88;;;;;;;;;;2090140;28;20041;-57
2023/11/21 05:44:25;;;;;;;3.17;1.02;;;;;;;;;;2090567;28;20029;-55
2023/11/21 05:45:26;;;;;;;7.60;1.05;;;;;;;;;;2090875;28;20436;-56
2023/11/21 05:46:26;;;;;;;3.25;0.85;;;;;;;;;;2090162;28;20500;-56
2023/11/21 05:47:27;;;;;;;3.28;0.75;;;;;;;;;;2090476;28;20040;-56
2023/11/21 05:48:28;;;;;;;2.40;1.00;;;;;;;;;;2090405;28;20033;-56
2023/11/21 05:49:29;;;;;;;3.08;1.00;;;;;;;;;;2090133;28;20040;-56
2023/11/21 05:50:30;;;;;;;6.63;1.02;;;;;;;;;;2090156;28;20041;-55
2023/11/21 05:51:31;;;;;;;2.65;0.80;;;;;;;;;;2090124;28;20057;-55
2023/11/21 05:52:34;;;;;;;2.88;0.90;;;;;;;;;;2089850;28;20072;-55
2023/11/21 05:53:35;;;;;;;4.47;1.10;;;;;;;;;;2090415;28;20041;-55
2023/11/21 05:54:36;;;;;;;3.20;0.85;;;;;;;;;;2090323;28;20059;-56
2023/11/21 05:55:37;;;;;;;3.13;1.00;;;;;;;;;;2090118;28;20473;-56
2023/11/21 05:56:37;;;;;;;3.72;0.95;;;;;;;;;;2090115;28;20037;-54
2023/11/21 05:57:38;;;;;;;4.15;1.02;;;;;;;;;;2090329;28;20441;-56
2023/11/21 05:58:39;;;;;;;3.10;0.80;;;;;;;;;;2090134;28;20060;-54
2023/11/21 05:59:40;;;;;;;3.88;0.88;;;;;;;;;;2090269;28;20039;-56
2023/11/21 06:00:41;;;;;;;2.55;1.13;;;;;;;;;;2090039;28;20041;-56
2023/11/21 06:01:42;;;;;;;4.72;1.05;;;;;;;;;;2090058;28;20469;-56
2023/11/21 06:02:43;;;;;;;3.75;1.05;;;;;;;;;;2090067;28;20401;-56
2023/11/21 06:03:43;;;;;;;2.13;1.02;;;;;;;;;;2090122;28;20033;-54
2023/11/21 06:04:44;;;;;;;3.75;1.05;;;;;;;;;;2091659;28;20045;-56
2023/11/21 06:05:45;;;;;;;6.55;1.23;;;;;;;;;;2091630;28;20485;-55
2023/11/21 06:06:45;;;;;;;3.17;0.75;;;;;;;;;;2092058;28;20025;-55